sensor_id;sensor_type;location;lat;lon;timestamp;noise_LAeq;noise_LA_min;noise_LA_max;noise_LA01;noise_LA95
71034;Laerm;58847;52.378;4.740;2023-03-03T00:00:10;48.52;47.50;49.59;;
71034;Laerm;58847;52.378;4.740;2023-03-03T00:00:21;48.51;47.68;49.50;;
71034;Laerm;58847;52.378;4.740;2023-03-03T00:00:31;48.51;47.63;49.44;;
71034;Laerm;58847;52.378;4.740;2023-03-03T00:00:41;48.51;47.50;49.49;;
71034;Laerm;58847;52.378;4.740;2023-03-03T00:00:52;48.56;47.37;49.51;;
71034;Laerm;58847;52.378;4.740;2023-03-03T00:01:03;48.51;47.62;49.40;;
71034;Laerm;58847;52.378;4.740;2023-03-03T00:01:13;48.57;47.64;49.78;;
71034;Laerm;58847;52.378;4.740;2023-03-03T00:01:24;48.53;47.63;49.54;;
71034;Laerm;58847;52.378;4.740;2023-03-03T00:01:35;48.53;47.69;49.63;;
71034;Laerm;58847;52.378;4.740;2023-03-03T00:01:45;48.52;47.69;49.34;;
71034;Laerm;58847;52.378;4.740;2023-03-03T00:01:55;48.55;47.61;49.56;;
71034;Laerm;58847;52.378;4.740;2023-03-03T00:02:05;48.59;47.67;49.71;;
71034;Laerm;58847;52.378;4.740;2023-03-03T00:02:16;48.61;47.60;49.56;;
71034;Laerm;58847;52.378;4.740;2023-03-03T00:02:26;48.56;47.69;49.64;;
71034;Laerm;58847;52.378;4.740;2023-03-03T00:02:36;48.46;47.51;49.35;;
71034;Laerm;58847;52.378;4.740;2023-03-03T00:02:46;48.54;47.53;49.82;;
71034;Laerm;58847;52.378;4.740;2023-03-03T00:02:57;48.50;47.40;49.90;;
71034;Laerm;58847;52.378;4.740;2023-03-03T00:03:11;48.46;47.30;49.66;;
71034;Laerm;58847;52.378;4.740;2023-03-03T00:03:24;48.47;47.49;49.70;;
71034;Laerm;58847;52.378;4.740;2023-03-03T00:03:36;48.44;47.56;49.39;;
71034;Laerm;58847;52.378;4.740;2023-03-03T00:03:46;48.45;47.59;49.60;;
71034;Laerm;58847;52.378;4.740;2023-03-03T00:03:56;48.55;47.48;50.43;;
71034;Laerm;58847;52.378;4.740;2023-03-03T00:04:06;48.55;47.57;50.12;;
71034;Laerm;58847;52.378;4.740;2023-03-03T00:04:17;48.57;47.36;49.48;;
71034;Laerm;58847;52.378;4.740;2023-03-03T00:04:27;48.54;47.69;49.54;;
71034;Laerm;58847;52.378;4.740;2023-03-03T00:04:37;48.58;47.49;49.68;;
71034;Laerm;58847;52.378;4.740;2023-03-03T00:04:48;48.60;47.42;50.25;;
71034;Laerm;58847;52.378;4.740;2023-03-03T00:04:59;48.56;47.62;49.93;;
71034;Laerm;58847;52.378;4.740;2023-03-03T00:05:09;48.47;47.31;49.78;;
71034;Laerm;58847;52.378;4.740;2023-03-03T00:05:19;48.45;47.53;49.49;;
71034;Laerm;58847;52.378;4.740;2023-03-03T00:05:30;48.42;47.24;49.67;;
71034;Laerm;58847;52.378;4.740;2023-03-03T00:05:42;48.54;47.41;50.03;;
71034;Laerm;58847;52.378;4.740;2023-03-03T00:05:52;48.52;47.52;50.18;;
71034;Laerm;58847;52.378;4.740;2023-03-03T00:06:03;48.49;47.49;49.84;;
71034;Laerm;58847;52.378;4.740;2023-03-03T00:06:14;48.43;47.28;49.48;;
71034;Laerm;58847;52.378;4.740;2023-03-03T00:06:24;48.50;47.26;49.47;;
71034;Laerm;58847;52.378;4.740;2023-03-03T00:06:35;48.54;47.67;49.46;;
71034;Laerm;58847;52.378;4.740;2023-03-03T00:06:46;48.45;47.45;49.82;;
71034;Laerm;58847;52.378;4.740;2023-03-03T00:06:56;48.49;47.49;49.43;;
71034;Laerm;58847;52.378;4.740;2023-03-03T00:07:06;48.51;47.58;49.92;;
71034;Laerm;58847;52.378;4.740;2023-03-03T00:07:16;48.46;47.64;49.68;;
71034;Laerm;58847;52.378;4.740;2023-03-03T00:07:32;48.48;47.37;49.66;;
71034;Laerm;58847;52.378;4.740;2023-03-03T00:07:43;48.49;47.61;49.72;;
71034;Laerm;58847;52.378;4.740;2023-03-03T00:07:53;48.46;47.41;49.45;;
71034;Laerm;58847;52.378;4.740;2023-03-03T00:08:03;48.48;47.33;49.48;;
71034;Laerm;58847;52.378;4.740;2023-03-03T00:08:14;48.45;47.45;49.64;;
71034;Laerm;58847;52.378;4.740;2023-03-03T00:08:24;48.50;47.30;50.12;;
71034;Laerm;58847;52.378;4.740;2023-03-03T00:08:35;48.47;47.71;49.26;;
71034;Laerm;58847;52.378;4.740;2023-03-03T00:08:45;48.47;47.57;49.86;;
71034;Laerm;58847;52.378;4.740;2023-03-03T00:08:56;48.50;47.54;49.62;;
71034;Laerm;58847;52.378;4.740;2023-03-03T00:09:07;48.48;47.55;49.71;;
71034;Laerm;58847;52.378;4.740;2023-03-03T00:09:17;48.50;47.16;50.06;;
71034;Laerm;58847;52.378;4.740;2023-03-03T00:09:27;48.41;47.44;49.39;;
71034;Laerm;58847;52.378;4.740;2023-03-03T00:09:37;48.41;47.44;49.42;;
71034;Laerm;58847;52.378;4.740;2023-03-03T00:09:48;48.49;47.53;49.78;;
71034;Laerm;58847;52.378;4.740;2023-03-03T00:09:58;48.52;47.45;50.37;;
71034;Laerm;58847;52.378;4.740;2023-03-03T00:10:09;48.46;47.59;49.68;;
71034;Laerm;58847;52.378;4.740;2023-03-03T00:10:19;48.47;47.34;49.70;;
71034;Laerm;58847;52.378;4.740;2023-03-03T00:10:29;48.54;47.36;50.48;;
71034;Laerm;58847;52.378;4.740;2023-03-03T00:10:39;48.49;47.52;50.00;;
71034;Laerm;58847;52.378;4.740;2023-03-03T00:10:50;48.52;47.55;50.33;;
71034;Laerm;58847;52.378;4.740;2023-03-03T00:11:02;48.46;47.29;49.84;;
71034;Laerm;58847;52.378;4.740;2023-03-03T00:11:15;48.43;47.64;50.60;;
71034;Laerm;58847;52.378;4.740;2023-03-03T00:11:25;48.47;47.55;49.71;;
71034;Laerm;58847;52.378;4.740;2023-03-03T00:11:35;48.48;47.45;49.42;;
71034;Laerm;58847;52.378;4.740;2023-03-03T00:11:46;48.43;47.49;50.23;;
71034;Laerm;58847;52.378;4.740;2023-03-03T00:11:59;48.45;47.51;49.59;;
71034;Laerm;58847;52.378;4.740;2023-03-03T00:12:30;48.43;47.20;49.35;;
71034;Laerm;58847;52.378;4.740;2023-03-03T00:12:47;48.50;47.48;50.47;;
71034;Laerm;58847;52.378;4.740;2023-03-03T00:12:57;48.49;47.44;49.72;;
71034;Laerm;58847;52.378;4.740;2023-03-03T00:13:19;48.59;47.64;49.59;;
71034;Laerm;58847;52.378;4.740;2023-03-03T00:13:30;48.51;47.04;50.26;;
71034;Laerm;58847;52.378;4.740;2023-03-03T00:13:55;48.43;47.51;49.47;;
71034;Laerm;58847;52.378;4.740;2023-03-03T00:14:09;48.41;47.45;50.07;;
71034;Laerm;58847;52.378;4.740;2023-03-03T00:14:30;48.49;47.40;50.86;;
71034;Laerm;58847;52.378;4.740;2023-03-03T00:14:41;49.47;47.40;54.33;;
71034;Laerm;58847;52.378;4.740;2023-03-03T00:14:51;52.10;50.66;53.61;;
71034;Laerm;58847;52.378;4.740;2023-03-03T00:15:11;48.83;47.50;54.95;;
71034;Laerm;58847;52.378;4.740;2023-03-03T00:15:24;48.39;47.41;49.50;;
71034;Laerm;58847;52.378;4.740;2023-03-03T00:15:34;48.39;47.46;49.63;;
71034;Laerm;58847;52.378;4.740;2023-03-03T00:15:45;48.38;47.31;49.72;;
71034;Laerm;58847;52.378;4.740;2023-03-03T00:16:04;48.38;47.41;49.64;;
71034;Laerm;58847;52.378;4.740;2023-03-03T00:16:23;48.45;47.40;50.41;;
71034;Laerm;58847;52.378;4.740;2023-03-03T00:16:34;48.41;47.41;49.84;;
71034;Laerm;58847;52.378;4.740;2023-03-03T00:16:46;48.41;47.62;49.52;;
71034;Laerm;58847;52.378;4.740;2023-03-03T00:16:59;48.42;47.37;49.45;;
71034;Laerm;58847;52.378;4.740;2023-03-03T00:17:15;48.49;47.34;50.14;;
71034;Laerm;58847;52.378;4.740;2023-03-03T00:17:29;48.40;47.51;49.55;;
71034;Laerm;58847;52.378;4.740;2023-03-03T00:17:39;48.43;47.52;49.35;;
71034;Laerm;58847;52.378;4.740;2023-03-03T00:17:49;48.49;47.37;49.57;;
71034;Laerm;58847;52.378;4.740;2023-03-03T00:18:00;48.43;47.36;49.58;;
71034;Laerm;58847;52.378;4.740;2023-03-03T00:18:16;48.46;47.42;49.48;;
71034;Laerm;58847;52.378;4.740;2023-03-03T00:18:29;48.49;47.42;49.97;;
71034;Laerm;58847;52.378;4.740;2023-03-03T00:18:44;48.51;47.64;49.41;;
71034;Laerm;58847;52.378;4.740;2023-03-03T00:18:55;48.53;47.57;49.84;;
71034;Laerm;58847;52.378;4.740;2023-03-03T00:19:12;48.46;47.50;49.51;;
71034;Laerm;58847;52.378;4.740;2023-03-03T00:19:23;48.49;47.66;49.44;;
71034;Laerm;58847;52.378;4.740;2023-03-03T00:19:36;48.52;47.08;49.69;;
71034;Laerm;58847;52.378;4.740;2023-03-03T00:19:47;48.51;47.57;49.58;;
71034;Laerm;58847;52.378;4.740;2023-03-03T00:19:58;48.48;47.40;49.76;;
71034;Laerm;58847;52.378;4.740;2023-03-03T00:20:38;48.45;47.50;49.79;;
71034;Laerm;58847;52.378;4.740;2023-03-03T00:20:51;48.41;47.58;49.47;;
71034;Laerm;58847;52.378;4.740;2023-03-03T00:21:02;48.43;47.60;49.50;;
71034;Laerm;58847;52.378;4.740;2023-03-03T00:21:23;48.46;47.41;50.01;;
71034;Laerm;58847;52.378;4.740;2023-03-03T00:21:41;48.48;47.37;49.53;;
71034;Laerm;58847;52.378;4.740;2023-03-03T00:21:54;48.52;47.48;50.09;;
71034;Laerm;58847;52.378;4.740;2023-03-03T00:22:06;48.48;47.54;49.48;;
71034;Laerm;58847;52.378;4.740;2023-03-03T00:22:34;48.47;47.39;50.60;;
71034;Laerm;58847;52.378;4.740;2023-03-03T00:22:44;48.46;47.32;49.92;;
71034;Laerm;58847;52.378;4.740;2023-03-03T00:22:55;48.42;47.36;49.36;;
71034;Laerm;58847;52.378;4.740;2023-03-03T00:23:35;48.47;47.27;49.64;;
71034;Laerm;58847;52.378;4.740;2023-03-03T00:23:46;48.48;47.41;49.66;;
71034;Laerm;58847;52.378;4.740;2023-03-03T00:24:10;48.44;47.35;49.50;;
71034;Laerm;58847;52.378;4.740;2023-03-03T00:24:35;48.59;47.36;50.24;;
71034;Laerm;58847;52.378;4.740;2023-03-03T00:24:46;48.45;47.52;49.50;;
71034;Laerm;58847;52.378;4.740;2023-03-03T00:24:58;48.50;47.40;50.49;;
71034;Laerm;58847;52.378;4.740;2023-03-03T00:25:32;48.39;47.44;57.03;;
71034;Laerm;58847;52.378;4.740;2023-03-03T00:25:43;48.37;47.27;50.03;;
71034;Laerm;58847;52.378;4.740;2023-03-03T00:25:55;48.34;47.51;49.46;;
71034;Laerm;58847;52.378;4.740;2023-03-03T00:26:14;48.31;47.36;49.23;;
71034;Laerm;58847;52.378;4.740;2023-03-03T00:26:28;48.34;47.26;49.43;;
71034;Laerm;58847;52.378;4.740;2023-03-03T00:26:40;53.26;47.80;54.96;;
71034;Laerm;58847;52.378;4.740;2023-03-03T00:26:52;53.33;52.22;54.54;;
71034;Laerm;58847;52.378;4.740;2023-03-03T00:27:16;52.96;50.77;54.27;;
71034;Laerm;58847;52.378;4.740;2023-03-03T00:27:30;53.22;51.92;54.25;;
71034;Laerm;58847;52.378;4.740;2023-03-03T00:27:43;53.27;51.95;54.46;;
71034;Laerm;58847;52.378;4.740;2023-03-03T00:27:53;53.26;52.01;54.63;;
71034;Laerm;58847;52.378;4.740;2023-03-03T00:28:13;51.55;47.27;54.64;;
71034;Laerm;58847;52.378;4.740;2023-03-03T00:28:30;53.09;47.39;55.29;;
71034;Laerm;58847;52.378;4.740;2023-03-03T00:28:45;53.09;50.79;54.15;;
71034;Laerm;58847;52.378;4.740;2023-03-03T00:28:56;53.16;51.36;54.49;;
71034;Laerm;58847;52.378;4.740;2023-03-03T00:29:36;51.98;47.99;54.76;;
71034;Laerm;58847;52.378;4.740;2023-03-03T00:29:51;49.80;48.30;51.28;;
71034;Laerm;58847;52.378;4.740;2023-03-03T00:30:02;49.89;48.78;51.24;;
71034;Laerm;58847;52.378;4.740;2023-03-03T00:30:26;50.53;48.53;54.59;;
71034;Laerm;58847;52.378;4.740;2023-03-03T00:30:36;50.00;48.54;50.86;;
71034;Laerm;58847;52.378;4.740;2023-03-03T00:30:47;49.93;48.51;52.82;;
71034;Laerm;58847;52.378;4.740;2023-03-03T00:30:58;51.21;48.73;54.49;;
71034;Laerm;58847;52.378;4.740;2023-03-03T00:31:19;49.84;48.67;50.78;;
71034;Laerm;58847;52.378;4.740;2023-03-03T00:31:33;49.92;48.63;53.43;;
71034;Laerm;58847;52.378;4.740;2023-03-03T00:31:44;50.79;48.86;54.45;;
71034;Laerm;58847;52.378;4.740;2023-03-03T00:31:54;50.08;48.73;51.08;;
71034;Laerm;58847;52.378;4.740;2023-03-03T00:32:14;50.65;48.86;54.32;;
71034;Laerm;58847;52.378;4.740;2023-03-03T00:32:37;49.93;48.78;51.17;;
71034;Laerm;58847;52.378;4.740;2023-03-03T00:32:51;50.12;48.03;54.73;;
71034;Laerm;58847;52.378;4.740;2023-03-03T00:33:02;50.29;49.12;51.61;;
71034;Laerm;58847;52.378;4.740;2023-03-03T00:33:32;50.67;48.99;54.47;;
71034;Laerm;58847;52.378;4.740;2023-03-03T00:33:50;50.18;49.01;54.11;;
71034;Laerm;58847;52.378;4.740;2023-03-03T00:34:25;50.03;48.64;51.15;;
71034;Laerm;58847;52.378;4.740;2023-03-03T00:34:34;50.13;48.72;54.05;;
71034;Laerm;58847;52.378;4.740;2023-03-03T00:34:45;50.20;48.97;54.60;;
71034;Laerm;58847;52.378;4.740;2023-03-03T00:34:59;50.01;48.98;51.04;;
71034;Laerm;58847;52.378;4.740;2023-03-03T00:35:22;50.00;48.84;51.14;;
71034;Laerm;58847;52.378;4.740;2023-03-03T00:35:33;50.59;48.65;53.91;;
71034;Laerm;58847;52.378;4.740;2023-03-03T00:35:44;50.03;48.86;51.15;;
71034;Laerm;58847;52.378;4.740;2023-03-03T00:35:55;49.91;48.74;50.97;;
71034;Laerm;58847;52.378;4.740;2023-03-03T00:36:35;50.04;48.63;51.25;;
71034;Laerm;58847;52.378;4.740;2023-03-03T00:36:46;50.03;48.96;51.37;;
71034;Laerm;58847;52.378;4.740;2023-03-03T00:36:58;50.22;49.07;51.69;;
71034;Laerm;58847;52.378;4.740;2023-03-03T00:37:27;50.20;49.05;51.18;;
71034;Laerm;58847;52.378;4.740;2023-03-03T00:37:39;49.85;48.04;51.36;;
71034;Laerm;58847;52.378;4.740;2023-03-03T00:37:52;51.06;48.96;54.58;;
71034;Laerm;58847;52.378;4.740;2023-03-03T00:38:11;50.55;48.94;54.61;;
71034;Laerm;58847;52.378;4.740;2023-03-03T00:38:23;49.96;48.71;51.26;;
71034;Laerm;58847;52.378;4.740;2023-03-03T00:38:33;49.91;48.95;50.73;;
71034;Laerm;58847;52.378;4.740;2023-03-03T00:38:44;49.92;48.58;50.85;;
71034;Laerm;58847;52.378;4.740;2023-03-03T00:38:55;50.14;48.94;54.11;;
71034;Laerm;58847;52.378;4.740;2023-03-03T00:39:13;50.72;48.92;54.14;;
71034;Laerm;58847;52.378;4.740;2023-03-03T00:39:37;50.91;48.72;54.23;;
71034;Laerm;58847;52.378;4.740;2023-03-03T00:39:47;49.89;48.79;50.90;;
71034;Laerm;58847;52.378;4.740;2023-03-03T00:40:10;49.93;49.02;52.51;;
71034;Laerm;58847;52.378;4.740;2023-03-03T00:40:41;50.47;47.79;54.03;;
71034;Laerm;58847;52.378;4.740;2023-03-03T00:40:51;50.23;48.98;53.96;;
71034;Laerm;58847;52.378;4.740;2023-03-03T00:41:03;50.90;48.97;54.18;;
71034;Laerm;58847;52.378;4.740;2023-03-03T00:41:19;50.05;48.53;50.89;;
71034;Laerm;58847;52.378;4.740;2023-03-03T00:41:32;50.05;48.78;51.10;;
71034;Laerm;58847;52.378;4.740;2023-03-03T00:41:44;49.95;48.85;50.96;;
71034;Laerm;58847;52.378;4.740;2023-03-03T00:41:54;50.01;48.54;51.43;;
71034;Laerm;58847;52.378;4.740;2023-03-03T00:42:11;49.93;48.21;51.17;;
71034;Laerm;58847;52.378;4.740;2023-03-03T00:42:22;49.63;48.11;51.20;;
71034;Laerm;58847;52.378;4.740;2023-03-03T00:42:33;49.68;47.85;52.93;;
71034;Laerm;58847;52.378;4.740;2023-03-03T00:42:46;49.06;47.79;51.00;;
71034;Laerm;58847;52.378;4.740;2023-03-03T00:42:58;50.09;48.84;51.11;;
71034;Laerm;58847;52.378;4.740;2023-03-03T00:43:19;50.09;49.10;51.17;;
71034;Laerm;58847;52.378;4.740;2023-03-03T00:43:33;50.40;48.87;54.63;;
71034;Laerm;58847;52.378;4.740;2023-03-03T00:43:44;50.04;49.06;51.15;;
71034;Laerm;58847;52.378;4.740;2023-03-03T00:43:54;49.96;48.84;51.16;;
71034;Laerm;58847;52.378;4.740;2023-03-03T00:44:48;50.13;48.01;54.03;;
71034;Laerm;58847;52.378;4.740;2023-03-03T00:45:21;49.39;47.60;52.22;;
71034;Laerm;58847;52.378;4.740;2023-03-03T00:45:37;51.42;47.95;53.89;;
71034;Laerm;58847;52.378;4.740;2023-03-03T00:45:53;51.26;49.90;52.41;;
71034;Laerm;58847;52.378;4.740;2023-03-03T00:46:03;51.21;49.24;56.62;;
71034;Laerm;58847;52.378;4.740;2023-03-03T00:46:17;51.30;50.10;56.89;;
71034;Laerm;58847;52.378;4.740;2023-03-03T00:46:28;52.49;50.14;54.79;;
71034;Laerm;58847;52.378;4.740;2023-03-03T00:46:39;49.61;47.80;51.63;;
71034;Laerm;58847;52.378;4.740;2023-03-03T00:46:50;52.06;48.57;55.24;;
71034;Laerm;58847;52.378;4.740;2023-03-03T00:47:12;50.76;48.61;55.68;;
71034;Laerm;58847;52.378;4.740;2023-03-03T00:47:35;50.60;47.60;53.14;;
71034;Laerm;58847;52.378;4.740;2023-03-03T00:47:46;51.14;47.57;55.31;;
71034;Laerm;58847;52.378;4.740;2023-03-03T00:47:57;54.00;51.01;55.51;;
71034;Laerm;58847;52.378;4.740;2023-03-03T00:48:41;51.70;48.28;56.00;;
71034;Laerm;58847;52.378;4.740;2023-03-03T00:48:51;51.62;48.40;55.13;;
71034;Laerm;58847;52.378;4.740;2023-03-03T00:48:52;51.92;49.01;54.50;;
71034;Laerm;58847;52.378;4.740;2023-03-03T00:49:04;52.20;48.04;55.46;;
71034;Laerm;58847;52.378;4.740;2023-03-03T00:49:22;51.31;48.17;56.25;;
71034;Laerm;58847;52.378;4.740;2023-03-03T00:49:34;50.19;48.14;52.04;;
71034;Laerm;58847;52.378;4.740;2023-03-03T00:49:44;50.17;48.15;52.10;;
71034;Laerm;58847;52.378;4.740;2023-03-03T00:50:38;50.05;47.49;51.77;;
71034;Laerm;58847;52.378;4.740;2023-03-03T00:50:40;50.22;48.23;52.52;;
71034;Laerm;58847;52.378;4.740;2023-03-03T00:50:49;52.14;47.72;56.06;;
71034;Laerm;58847;52.378;4.740;2023-03-03T00:51:00;54.58;48.14;56.06;;
71034;Laerm;58847;52.378;4.740;2023-03-03T00:51:31;50.23;47.72;55.27;;
71034;Laerm;58847;52.378;4.740;2023-03-03T00:51:43;51.22;48.06;54.09;;
71034;Laerm;58847;52.378;4.740;2023-03-03T00:51:53;52.60;48.99;54.84;;
71034;Laerm;58847;52.378;4.740;2023-03-03T00:52:10;51.93;47.98;55.03;;
71034;Laerm;58847;52.378;4.740;2023-03-03T00:52:20;51.11;48.08;55.02;;
71034;Laerm;58847;52.378;4.740;2023-03-03T00:52:40;51.06;48.20;54.79;;
71034;Laerm;58847;52.378;4.740;2023-03-03T00:53:22;52.19;47.50;56.05;;
71034;Laerm;58847;52.378;4.740;2023-03-03T00:53:32;50.96;47.93;54.49;;
71034;Laerm;58847;52.378;4.740;2023-03-03T00:53:43;50.71;47.80;53.87;;
71034;Laerm;58847;52.378;4.740;2023-03-03T00:53:53;52.34;48.14;55.25;;
71034;Laerm;58847;52.378;4.740;2023-03-03T00:54:04;50.71;48.12;54.68;;
71034;Laerm;58847;52.378;4.740;2023-03-03T00:54:14;50.38;47.70;54.56;;
71034;Laerm;58847;52.378;4.740;2023-03-03T00:54:24;52.12;48.37;54.58;;
71034;Laerm;58847;52.378;4.740;2023-03-03T00:54:34;52.09;48.10;54.82;;
71034;Laerm;58847;52.378;4.740;2023-03-03T00:54:45;51.78;47.89;54.63;;
71034;Laerm;58847;52.378;4.740;2023-03-03T00:54:55;50.18;48.15;51.97;;
71034;Laerm;58847;52.378;4.740;2023-03-03T00:55:06;50.57;48.10;54.01;;
71034;Laerm;58847;52.378;4.740;2023-03-03T00:55:16;50.03;48.00;53.23;;
71034;Laerm;58847;52.378;4.740;2023-03-03T00:55:27;50.81;48.04;53.95;;
71034;Laerm;58847;52.378;4.740;2023-03-03T00:55:38;50.77;47.81;52.79;;
71034;Laerm;58847;52.378;4.740;2023-03-03T00:55:49;50.61;47.95;54.07;;
71034;Laerm;58847;52.378;4.740;2023-03-03T00:56:00;51.20;47.89;54.22;;
71034;Laerm;58847;52.378;4.740;2023-03-03T00:56:10;50.43;48.15;52.32;;
71034;Laerm;58847;52.378;4.740;2023-03-03T00:56:20;51.91;47.83;54.59;;
71034;Laerm;58847;52.378;4.740;2023-03-03T00:56:31;50.87;48.04;55.21;;
71034;Laerm;58847;52.378;4.740;2023-03-03T00:56:41;51.11;48.63;54.04;;
71034;Laerm;58847;52.378;4.740;2023-03-03T00:56:51;52.44;49.05;54.85;;
71034;Laerm;58847;52.378;4.740;2023-03-03T00:57:02;51.60;49.21;54.14;;
71034;Laerm;58847;52.378;4.740;2023-03-03T00:57:12;51.80;49.30;54.41;;
71034;Laerm;58847;52.378;4.740;2023-03-03T00:57:22;51.82;48.76;54.34;;
71034;Laerm;58847;52.378;4.740;2023-03-03T00:57:32;51.17;48.92;54.23;;
71034;Laerm;58847;52.378;4.740;2023-03-03T00:57:42;50.60;48.77;53.24;;
71034;Laerm;58847;52.378;4.740;2023-03-03T00:57:53;50.76;48.06;53.24;;
71034;Laerm;58847;52.378;4.740;2023-03-03T00:58:03;50.35;47.89;54.41;;
71034;Laerm;58847;52.378;4.740;2023-03-03T00:58:17;51.05;47.61;54.79;;
71034;Laerm;58847;52.378;4.740;2023-03-03T00:58:30;50.18;47.75;53.31;;
71034;Laerm;58847;52.378;4.740;2023-03-03T00:58:40;49.87;47.85;53.23;;
71034;Laerm;58847;52.378;4.740;2023-03-03T00:58:53;50.84;47.83;54.47;;
71034;Laerm;58847;52.378;4.740;2023-03-03T00:59:03;50.32;47.72;53.79;;
71034;Laerm;58847;52.378;4.740;2023-03-03T00:59:13;50.02;47.82;51.80;;
71034;Laerm;58847;52.378;4.740;2023-03-03T00:59:23;51.00;47.79;54.76;;
71034;Laerm;58847;52.378;4.740;2023-03-03T00:59:34;50.83;48.43;52.19;;
71034;Laerm;58847;52.378;4.740;2023-03-03T00:59:44;51.32;48.24;54.55;;
71034;Laerm;58847;52.378;4.740;2023-03-03T00:59:54;49.95;47.77;53.43;;
71034;Laerm;58847;52.378;4.740;2023-03-03T01:00:05;50.59;48.03;53.10;;
71034;Laerm;58847;52.378;4.740;2023-03-03T01:00:15;51.15;48.46;53.61;;
71034;Laerm;58847;52.378;4.740;2023-03-03T01:00:25;50.72;47.93;53.80;;
71034;Laerm;58847;52.378;4.740;2023-03-03T01:00:36;50.70;47.84;54.47;;
71034;Laerm;58847;52.378;4.740;2023-03-03T01:00:48;52.08;48.37;54.56;;
71034;Laerm;58847;52.378;4.740;2023-03-03T01:00:59;50.37;48.03;52.35;;
71034;Laerm;58847;52.378;4.740;2023-03-03T01:01:09;49.83;48.08;52.66;;
71034;Laerm;58847;52.378;4.740;2023-03-03T01:01:19;50.72;47.85;53.94;;
71034;Laerm;58847;52.378;4.740;2023-03-03T01:01:30;51.23;47.94;54.36;;
71034;Laerm;58847;52.378;4.740;2023-03-03T01:01:40;50.35;47.93;53.88;;
71034;Laerm;58847;52.378;4.740;2023-03-03T01:01:52;49.91;47.88;53.88;;
71034;Laerm;58847;52.378;4.740;2023-03-03T01:02:03;50.91;47.96;54.39;;
71034;Laerm;58847;52.378;4.740;2023-03-03T01:02:13;52.11;47.93;54.67;;
71034;Laerm;58847;52.378;4.740;2023-03-03T01:02:24;49.46;47.94;51.63;;
71034;Laerm;58847;52.378;4.740;2023-03-03T01:02:34;49.73;47.53;53.13;;
71034;Laerm;58847;52.378;4.740;2023-03-03T01:02:44;49.29;48.00;50.78;;
71034;Laerm;58847;52.378;4.740;2023-03-03T01:02:55;50.66;47.91;54.31;;
71034;Laerm;58847;52.378;4.740;2023-03-03T01:03:07;51.82;48.12;54.19;;
71034;Laerm;58847;52.378;4.740;2023-03-03T01:03:19;51.91;47.67;55.44;;
71034;Laerm;58847;52.378;4.740;2023-03-03T01:03:30;49.96;47.82;52.07;;
71034;Laerm;58847;52.378;4.740;2023-03-03T01:03:41;49.27;47.78;50.78;;
71034;Laerm;58847;52.378;4.740;2023-03-03T01:03:51;49.89;47.84;53.36;;
71034;Laerm;58847;52.378;4.740;2023-03-03T01:04:02;49.83;47.93;52.11;;
71034;Laerm;58847;52.378;4.740;2023-03-03T01:04:12;50.42;47.62;52.39;;
71034;Laerm;58847;52.378;4.740;2023-03-03T01:04:22;49.64;47.82;52.18;;
71034;Laerm;58847;52.378;4.740;2023-03-03T01:04:32;51.89;48.10;54.72;;
71034;Laerm;58847;52.378;4.740;2023-03-03T01:04:46;50.29;47.91;54.74;;
71034;Laerm;58847;52.378;4.740;2023-03-03T01:04:58;49.65;47.92;52.34;;
71034;Laerm;58847;52.378;4.740;2023-03-03T01:05:08;49.96;47.87;52.36;;
71034;Laerm;58847;52.378;4.740;2023-03-03T01:05:19;49.18;47.90;53.00;;
71034;Laerm;58847;52.378;4.740;2023-03-03T01:05:30;50.01;47.92;51.73;;
71034;Laerm;58847;52.378;4.740;2023-03-03T01:05:40;49.36;47.58;51.95;;
71034;Laerm;58847;52.378;4.740;2023-03-03T01:05:51;49.28;47.93;51.27;;
71034;Laerm;58847;52.378;4.740;2023-03-03T01:06:02;49.53;47.81;51.77;;
71034;Laerm;58847;52.378;4.740;2023-03-03T01:06:12;49.73;47.72;53.37;;
71034;Laerm;58847;52.378;4.740;2023-03-03T01:06:23;50.36;47.93;54.15;;
71034;Laerm;58847;52.378;4.740;2023-03-03T01:06:33;51.11;48.04;54.46;;
71034;Laerm;58847;52.378;4.740;2023-03-03T01:06:43;49.80;47.70;54.09;;
71034;Laerm;58847;52.378;4.740;2023-03-03T01:06:53;49.48;47.86;52.04;;
71034;Laerm;58847;52.378;4.740;2023-03-03T01:07:04;49.77;47.91;53.64;;
71034;Laerm;58847;52.378;4.740;2023-03-03T01:07:14;50.04;48.09;52.07;;
71034;Laerm;58847;52.378;4.740;2023-03-03T01:07:24;50.24;47.76;53.87;;
71034;Laerm;58847;52.378;4.740;2023-03-03T01:07:34;51.21;48.23;54.32;;
71034;Laerm;58847;52.378;4.740;2023-03-03T01:07:45;50.80;47.65;54.74;;
71034;Laerm;58847;52.378;4.740;2023-03-03T01:07:55;50.26;48.11;52.88;;
71034;Laerm;58847;52.378;4.740;2023-03-03T01:08:06;50.28;48.12;52.27;;
71034;Laerm;58847;52.378;4.740;2023-03-03T01:08:16;50.44;48.77;52.93;;
71034;Laerm;58847;52.378;4.740;2023-03-03T01:08:26;49.54;47.72;52.39;;
71034;Laerm;58847;52.378;4.740;2023-03-03T01:08:37;50.42;47.95;53.68;;
71034;Laerm;58847;52.378;4.740;2023-03-03T01:08:47;50.72;48.04;54.75;;
71034;Laerm;58847;52.378;4.740;2023-03-03T01:08:58;50.42;47.82;54.11;;
71034;Laerm;58847;52.378;4.740;2023-03-03T01:09:08;50.32;47.86;52.42;;
71034;Laerm;58847;52.378;4.740;2023-03-03T01:09:18;49.47;47.67;51.78;;
71034;Laerm;58847;52.378;4.740;2023-03-03T01:09:31;49.64;47.59;53.05;;
71034;Laerm;58847;52.378;4.740;2023-03-03T01:09:42;51.82;47.85;54.19;;
71034;Laerm;58847;52.378;4.740;2023-03-03T01:09:52;52.15;47.86;54.97;;
71034;Laerm;58847;52.378;4.740;2023-03-03T01:10:02;51.74;47.89;54.81;;
71034;Laerm;58847;52.378;4.740;2023-03-03T01:10:13;50.10;48.05;53.65;;
71034;Laerm;58847;52.378;4.740;2023-03-03T01:10:26;49.79;47.81;53.63;;
71034;Laerm;58847;52.378;4.740;2023-03-03T01:10:45;50.71;48.11;54.31;;
71034;Laerm;58847;52.378;4.740;2023-03-03T01:11:03;50.18;47.39;54.61;;
71034;Laerm;58847;52.378;4.740;2023-03-03T01:11:19;49.91;47.67;52.58;;
71034;Laerm;58847;52.378;4.740;2023-03-03T01:11:30;50.18;48.26;54.02;;
71034;Laerm;58847;52.378;4.740;2023-03-03T01:11:41;50.69;47.89;53.75;;
71034;Laerm;58847;52.378;4.740;2023-03-03T01:11:51;49.43;48.03;51.64;;
71034;Laerm;58847;52.378;4.740;2023-03-03T01:12:01;50.37;47.73;54.01;;
71034;Laerm;58847;52.378;4.740;2023-03-03T01:12:12;50.92;47.64;54.11;;
71034;Laerm;58847;52.378;4.740;2023-03-03T01:12:22;50.83;47.89;54.37;;
71034;Laerm;58847;52.378;4.740;2023-03-03T01:12:33;50.94;48.24;54.52;;
71034;Laerm;58847;52.378;4.740;2023-03-03T01:12:43;49.97;47.74;54.10;;
71034;Laerm;58847;52.378;4.740;2023-03-03T01:12:53;49.51;47.82;50.60;;
71034;Laerm;58847;52.378;4.740;2023-03-03T01:13:04;49.73;47.84;52.80;;
71034;Laerm;58847;52.378;4.740;2023-03-03T01:13:15;52.15;47.94;54.98;;
71034;Laerm;58847;52.378;4.740;2023-03-03T01:13:26;51.78;48.13;54.68;;
71034;Laerm;58847;52.378;4.740;2023-03-03T01:13:37;51.22;48.19;54.55;;
71034;Laerm;58847;52.378;4.740;2023-03-03T01:13:49;50.03;47.93;54.42;;
71034;Laerm;58847;52.378;4.740;2023-03-03T01:13:59;49.30;47.82;51.74;;
71034;Laerm;58847;52.378;4.740;2023-03-03T01:14:10;51.42;48.03;54.68;;
71034;Laerm;58847;52.378;4.740;2023-03-03T01:14:20;50.60;47.93;54.38;;
71034;Laerm;58847;52.378;4.740;2023-03-03T01:14:30;50.07;47.50;53.81;;
71034;Laerm;58847;52.378;4.740;2023-03-03T01:14:41;49.61;47.92;52.11;;